createdAt,value
2017-11-03T00:02:07.946Z,13.13
2017-11-03T00:04:38.805Z,12.63
2017-11-03T00:07:09.663Z,11.47
2017-11-03T00:09:40.532Z,12.53
2017-11-03T00:12:11.373Z,12.20
2017-11-03T00:14:42.243Z,11.00
2017-11-03T00:17:13.098Z,11.60
2017-11-03T00:19:43.969Z,12.33
2017-11-03T00:22:14.847Z,11.90
2017-11-03T00:24:45.686Z,11.50
2017-11-03T00:27:16.540Z,11.90
2017-11-03T00:29:47.435Z,11.37
2017-11-03T00:32:18.298Z,11.30
2017-11-03T00:34:49.154Z,11.83
2017-11-03T00:37:20.009Z,10.20
2017-11-03T00:39:50.865Z,11.90
2017-11-03T00:42:21.717Z,11.07
2017-11-03T00:44:52.589Z,10.73
2017-11-03T00:47:23.453Z,10.07
2017-11-03T00:49:54.320Z,10.00
2017-11-03T00:52:25.192Z,10.60
2017-11-03T00:54:56.028Z,10.43
2017-11-03T00:57:26.916Z,11.57
2017-11-03T00:59:57.761Z,11.53
2017-11-03T01:02:28.647Z,10.03
2017-11-03T01:04:59.504Z,10.70
2017-11-03T01:07:30.349Z,10.17
2017-11-03T01:10:01.220Z,10.90
2017-11-03T01:12:32.052Z,9.57
2017-11-03T01:15:02.920Z,10.67
2017-11-03T01:17:33.776Z,10.20
2017-11-03T01:20:04.635Z,9.83
2017-11-03T01:22:35.471Z,9.73
2017-11-03T01:25:06.328Z,11.03
2017-11-03T01:27:37.200Z,10.40
2017-11-03T01:30:08.048Z,10.17
2017-11-03T01:32:38.887Z,9.80
2017-11-03T01:35:09.756Z,10.90
2017-11-03T01:37:40.603Z,11.03
2017-11-03T01:40:11.478Z,9.93
2017-11-03T01:42:42.307Z,9.60
2017-11-03T01:45:13.177Z,10.43
2017-11-03T01:47:44.021Z,9.27
2017-11-03T01:50:14.880Z,9.67
2017-11-03T01:52:45.718Z,9.53
2017-11-03T01:55:16.571Z,9.13
2017-11-03T01:57:47.424Z,9.27
2017-11-03T02:00:18.271Z,9.17
2017-11-03T02:02:49.254Z,10.10
2017-11-03T02:05:20.115Z,11.07
2017-11-03T02:07:50.952Z,10.60
2017-11-03T02:10:21.827Z,9.17
2017-11-03T02:12:52.675Z,9.27
2017-11-03T02:15:23.520Z,8.90
2017-11-03T02:17:54.363Z,10.27
2017-11-03T02:20:25.227Z,9.20
2017-11-03T02:22:56.087Z,8.80
2017-11-03T02:25:26.923Z,9.27
2017-11-03T02:27:57.775Z,9.07
2017-11-03T02:30:28.619Z,8.77
2017-11-03T02:32:59.476Z,8.83
2017-11-03T02:35:30.340Z,8.67
2017-11-03T02:38:01.192Z,10.27
2017-11-03T02:40:32.047Z,9.13
2017-11-03T02:43:02.895Z,9.00
2017-11-03T02:45:33.824Z,8.10
2017-11-03T02:48:04.647Z,8.40
2017-11-03T02:50:35.479Z,8.37
2017-11-03T02:53:06.324Z,9.50
2017-11-03T02:55:37.183Z,9.17
2017-11-03T02:58:08.024Z,8.70
2017-11-03T03:00:38.875Z,9.77
2017-11-03T03:03:09.708Z,8.40
2017-11-03T03:05:40.567Z,8.03
2017-11-03T03:08:11.424Z,8.23
2017-11-03T03:10:42.284Z,7.47
2017-11-03T03:13:13.124Z,7.33
2017-11-03T03:15:43.997Z,7.70
2017-11-03T03:18:14.836Z,8.33
2017-11-03T03:20:45.789Z,8.67
2017-11-03T03:23:16.632Z,7.67
2017-11-03T03:25:47.476Z,8.00
2017-11-03T03:28:18.337Z,7.60
2017-11-03T03:30:49.181Z,7.73
2017-11-03T03:33:20.038Z,7.47
2017-11-03T03:35:50.896Z,7.17
2017-11-03T03:38:21.744Z,6.77
2017-11-03T03:40:52.607Z,8.10
2017-11-03T03:43:23.451Z,7.37
2017-11-03T03:45:54.312Z,7.73
2017-11-03T03:48:25.139Z,8.13
2017-11-03T03:50:55.968Z,7.10
2017-11-03T03:53:26.820Z,7.03
2017-11-03T03:55:57.680Z,6.80
2017-11-03T03:58:28.512Z,7.50
2017-11-03T04:00:59.392Z,7.00
2017-11-03T04:03:30.235Z,7.30
2017-11-03T04:06:01.064Z,7.80
2017-11-03T04:08:32.000Z,7.00
2017-11-03T04:11:02.820Z,6.77
2017-11-03T04:13:33.657Z,6.67
2017-11-03T04:16:04.504Z,7.47
2017-11-03T04:18:35.364Z,8.00
2017-11-03T04:21:06.220Z,7.23
2017-11-03T04:23:37.080Z,6.47
2017-11-03T04:26:07.945Z,7.77
2017-11-03T04:28:38.780Z,6.60
2017-11-03T04:31:09.655Z,6.60
2017-11-03T04:33:40.488Z,6.60
2017-11-03T04:36:11.351Z,6.90
2017-11-03T04:38:42.181Z,5.90
2017-11-03T04:41:13.026Z,7.83
2017-11-03T04:43:43.887Z,6.60
2017-11-03T04:46:14.753Z,7.20
2017-11-03T04:48:45.611Z,6.53
2017-11-03T04:51:16.472Z,6.47
2017-11-03T04:53:47.344Z,7.03
2017-11-03T04:56:18.217Z,5.90
2017-11-03T04:58:49.079Z,7.33
2017-11-03T05:01:19.909Z,6.50
2017-11-03T05:03:50.771Z,6.30
2017-11-03T05:06:21.604Z,6.50
2017-11-03T05:08:52.454Z,5.40
2017-11-03T05:11:23.307Z,6.20
2017-11-03T05:13:54.157Z,6.10
2017-11-03T05:16:25.013Z,5.80
2017-11-03T05:18:55.863Z,5.80
2017-11-03T05:21:26.729Z,4.73
2017-11-03T05:23:57.583Z,5.70
2017-11-03T05:26:28.436Z,6.10
2017-11-03T05:28:59.291Z,5.30
2017-11-03T05:31:30.155Z,5.60
2017-11-03T05:34:01.023Z,5.23
2017-11-03T05:36:31.879Z,5.93
2017-11-03T05:39:02.736Z,5.17
2017-11-03T05:41:33.567Z,4.87
2017-11-03T05:44:04.427Z,5.10
2017-11-03T05:46:35.268Z,4.87
2017-11-03T05:49:06.123Z,5.53
2017-11-03T05:51:36.983Z,5.30
2017-11-03T05:54:07.848Z,5.90
2017-11-03T05:56:38.691Z,5.03
2017-11-03T05:59:09.555Z,4.67
2017-11-03T06:01:40.409Z,4.90
2017-11-03T06:04:11.268Z,5.00
2017-11-03T06:06:42.128Z,5.30
2017-11-03T06:09:12.983Z,4.50
2017-11-03T06:11:43.836Z,5.10
2017-11-03T06:14:14.671Z,5.43
2017-11-03T06:16:45.496Z,4.60
2017-11-03T06:19:16.333Z,5.33
2017-11-03T06:21:47.230Z,5.30
2017-11-03T06:24:18.068Z,4.63
2017-11-03T06:26:48.933Z,5.40
2017-11-03T06:29:19.797Z,4.47
2017-11-03T06:31:50.662Z,4.80
2017-11-03T06:34:21.516Z,4.53
2017-11-03T06:36:52.383Z,4.70
2017-11-03T06:39:23.246Z,4.43
2017-11-03T06:41:54.115Z,3.87
2017-11-03T06:44:24.975Z,4.23
2017-11-03T06:46:55.832Z,4.00
2017-11-03T06:49:26.693Z,4.00
2017-11-03T06:51:57.545Z,3.30
2017-11-03T06:54:28.402Z,3.40
2017-11-03T06:56:59.298Z,3.10
2017-11-03T06:59:30.159Z,3.13
2017-11-03T07:02:01.011Z,2.70
2017-11-03T07:04:31.858Z,2.30
2017-11-03T07:07:02.743Z,2.07
2017-11-03T07:09:33.600Z,2.50
2017-11-03T07:12:04.447Z,2.33
2017-11-03T07:14:35.311Z,1.63
2017-11-03T07:17:06.174Z,2.03
2017-11-03T07:19:37.012Z,1.50
2017-11-03T07:22:07.857Z,1.80
2017-11-03T07:24:38.714Z,2.20
2017-11-03T07:27:09.551Z,1.97
2017-11-03T07:29:40.419Z,2.27
2017-11-03T07:32:11.251Z,1.87
2017-11-03T07:34:42.096Z,2.10
2017-11-03T07:37:12.931Z,1.93
2017-11-03T07:39:43.772Z,1.83
2017-11-03T07:42:14.616Z,2.00
2017-11-03T07:44:45.501Z,1.90
2017-11-03T07:47:16.340Z,2.00
2017-11-03T07:49:47.187Z,1.93
2017-11-03T07:52:18.036Z,1.87
2017-11-03T07:54:48.900Z,2.00
2017-11-03T07:57:19.756Z,1.57
2017-11-03T07:59:50.603Z,1.30
2017-11-03T08:02:21.463Z,1.60
2017-11-03T08:04:52.302Z,1.83
2017-11-03T08:07:23.170Z,2.30
2017-11-03T08:09:54.020Z,2.07
2017-11-03T08:12:24.876Z,2.07
2017-11-03T08:14:55.707Z,1.40
2017-11-03T08:17:26.544Z,2.10
2017-11-03T08:19:57.367Z,2.00
2017-11-03T08:22:28.250Z,1.60
2017-11-03T08:24:59.096Z,1.33
2017-11-03T08:27:29.966Z,1.87
2017-11-03T08:30:00.807Z,1.53
2017-11-03T08:32:31.697Z,1.43
2017-11-03T08:35:18.120Z,1.45
2017-11-03T08:37:48.991Z,1.40
2017-11-03T08:40:19.833Z,1.77
2017-11-03T08:42:50.686Z,1.57
2017-11-03T08:45:21.536Z,1.50
2017-11-03T08:47:52.416Z,2.33
2017-11-03T08:50:23.252Z,1.60
2017-11-03T08:52:54.080Z,2.03
2017-11-03T08:55:25.044Z,2.30
2017-11-03T08:57:55.880Z,2.40
2017-11-03T09:00:26.716Z,2.23
2017-11-03T09:02:57.527Z,2.23
2017-11-03T09:05:28.364Z,2.60
2017-11-03T09:07:59.184Z,3.27
2017-11-03T09:10:30.008Z,3.63
2017-11-03T09:13:00.838Z,3.27
2017-11-03T09:15:31.676Z,3.60
2017-11-03T09:18:02.515Z,2.90
2017-11-03T09:20:33.370Z,3.20
2017-11-03T09:23:04.236Z,2.77
2017-11-03T09:36:17.267Z,3.10
2017-11-03T09:38:48.120Z,3.83
2017-11-03T09:41:18.988Z,3.13
2017-11-03T09:43:49.832Z,2.97
2017-11-03T09:46:20.704Z,2.60
2017-11-03T09:48:51.559Z,2.30
2017-11-03T09:51:22.411Z,2.50
2017-11-03T09:53:53.279Z,2.60
2017-11-03T09:56:24.132Z,2.70
2017-11-03T09:58:54.972Z,2.40
2017-11-03T10:01:25.830Z,2.47
2017-11-03T10:03:56.702Z,2.03
2017-11-03T10:06:27.541Z,2.50
2017-11-03T10:08:58.393Z,2.23
2017-11-03T10:11:29.236Z,2.20
2017-11-03T10:14:00.093Z,2.30
2017-11-03T10:16:30.928Z,2.03
2017-11-03T10:19:01.767Z,2.10
2017-11-03T10:21:32.591Z,2.03
2017-11-03T10:24:03.435Z,1.97
2017-11-03T10:26:34.297Z,1.87
2017-11-03T10:29:05.163Z,1.40
2017-11-03T10:31:36.048Z,1.60
2017-11-03T10:34:07.015Z,1.87
2017-11-03T10:36:37.872Z,2.27
2017-11-03T10:39:08.716Z,2.47
2017-11-03T10:41:39.573Z,2.33
2017-11-03T10:44:10.423Z,2.20
2017-11-03T10:46:41.263Z,2.57
2017-11-03T10:49:12.128Z,2.40
2017-11-03T10:51:42.970Z,2.20
2017-11-03T10:54:19.127Z,2.17
2017-11-03T10:56:51.975Z,2.03
2017-11-03T10:59:22.821Z,2.20
2017-11-03T11:01:53.721Z,2.30
2017-11-03T11:04:24.595Z,2.40
2017-11-03T11:06:55.448Z,2.30
2017-11-03T11:09:26.295Z,2.60
2017-11-03T11:11:57.126Z,2.20
2017-11-03T11:14:27.985Z,2.47
2017-11-03T11:16:58.836Z,2.53
2017-11-03T11:19:29.685Z,2.70
2017-11-03T11:22:00.551Z,2.40
2017-11-03T11:24:31.387Z,2.80
2017-11-03T11:27:02.267Z,2.80
2017-11-03T11:29:33.096Z,2.50
2017-11-03T11:32:03.949Z,2.63
2017-11-03T11:34:34.787Z,2.27
2017-11-03T11:37:05.653Z,2.37
2017-11-03T11:39:36.488Z,2.77
2017-11-03T11:42:07.335Z,2.80
2017-11-03T11:44:38.186Z,2.63
2017-11-03T11:47:09.054Z,2.40
2017-11-03T11:49:39.927Z,2.57
2017-11-03T11:52:10.769Z,2.60
2017-11-03T11:54:41.632Z,2.60
2017-11-03T11:57:12.466Z,2.40
2017-11-03T11:59:43.303Z,2.57
2017-11-03T12:02:14.156Z,2.53
2017-11-03T12:04:45.048Z,2.30
2017-11-03T12:07:15.917Z,2.20
2017-11-03T12:09:46.769Z,2.40
2017-11-03T12:12:17.635Z,2.97
2017-11-03T12:14:48.509Z,3.13
2017-11-03T12:17:19.337Z,2.77
2017-11-03T12:19:50.177Z,3.00
2017-11-03T12:22:21.035Z,3.13
2017-11-03T12:24:51.916Z,2.70
2017-11-03T12:27:22.759Z,2.87
2017-11-03T12:29:53.695Z,2.53
2017-11-03T12:32:24.527Z,1.90
2017-11-03T12:34:55.372Z,1.90
2017-11-03T12:37:26.244Z,1.53
2017-11-03T12:39:57.074Z,2.10
2017-11-03T12:42:27.944Z,3.00
2017-11-03T12:44:58.784Z,2.50
2017-11-03T12:47:29.648Z,2.83
2017-11-03T12:50:00.504Z,2.87
2017-11-03T12:52:31.368Z,2.73
2017-11-03T12:55:02.223Z,3.17
2017-11-03T12:57:33.093Z,3.60
2017-11-03T13:00:03.952Z,4.80
2017-11-03T13:02:34.821Z,5.27
2017-11-03T13:05:05.672Z,4.73
2017-11-03T13:07:36.536Z,4.70
2017-11-03T13:10:07.421Z,3.80
2017-11-03T13:12:38.293Z,3.97
2017-11-03T13:15:09.139Z,3.30
2017-11-03T13:17:39.981Z,3.17
2017-11-03T13:20:10.865Z,3.23
2017-11-03T13:22:41.719Z,3.57
2017-11-03T13:25:12.589Z,3.10
2017-11-03T13:27:43.444Z,3.20
2017-11-03T13:30:14.327Z,3.97
2017-11-03T13:32:45.172Z,3.77
2017-11-03T13:35:16.039Z,2.70
2017-11-03T13:37:46.896Z,3.20
2017-11-03T13:40:17.740Z,2.63
2017-11-03T13:42:48.617Z,3.00
2017-11-03T13:45:19.459Z,3.33
2017-11-03T13:47:50.322Z,2.97
2017-11-03T13:50:21.167Z,2.80
2017-11-03T13:52:52.050Z,3.23
2017-11-03T13:58:09.578Z,3.37
2017-11-03T14:00:40.452Z,3.83
2017-11-03T14:03:11.333Z,3.00
2017-11-03T14:05:42.212Z,3.70
2017-11-03T14:08:13.058Z,3.17
2017-11-03T14:10:43.911Z,2.80
2017-11-03T14:13:14.744Z,4.53
2017-11-03T14:15:45.594Z,4.67
2017-11-03T14:18:16.428Z,5.60
2017-11-03T14:20:47.296Z,5.77
2017-11-03T14:23:18.131Z,5.40
2017-11-03T14:25:48.985Z,5.30
2017-11-03T14:28:19.862Z,5.43
2017-11-03T14:30:50.702Z,3.90
2017-11-03T14:33:21.568Z,5.30
2017-11-03T14:35:52.416Z,4.83
2017-11-03T14:38:23.361Z,4.93
2017-11-03T14:40:54.198Z,5.07
2017-11-03T14:43:25.072Z,5.10
2017-11-03T14:45:55.940Z,4.70
2017-11-03T14:48:26.804Z,4.60
2017-11-03T14:50:57.683Z,4.23
2017-11-03T14:53:28.528Z,4.43
2017-11-03T14:55:59.379Z,4.30
2017-11-03T14:58:30.217Z,3.90
2017-11-03T15:01:01.048Z,3.73
2017-11-03T15:03:31.895Z,2.80
2017-11-03T15:06:02.763Z,2.00
2017-11-03T15:08:33.618Z,1.50
2017-11-03T15:11:04.466Z,1.40
2017-11-03T15:13:35.329Z,1.83
2017-11-03T15:16:06.179Z,1.90
2017-11-03T15:18:37.048Z,2.77
2017-11-03T15:21:08.001Z,2.03
2017-11-03T15:25:49.632Z,1.87
2017-11-03T15:28:20.515Z,2.10
2017-11-03T15:30:51.389Z,1.73
2017-11-03T15:33:22.528Z,1.80
2017-11-03T15:35:53.419Z,1.70
2017-11-03T15:38:24.405Z,2.13
2017-11-03T15:40:55.275Z,1.50
2017-11-03T15:43:26.116Z,1.93
2017-11-03T15:45:56.968Z,1.40
2017-11-03T15:48:27.863Z,1.73
2017-11-03T15:50:58.727Z,2.00
2017-11-03T15:53:29.572Z,1.67
2017-11-03T15:56:00.447Z,1.70
2017-11-03T15:58:31.297Z,1.70
2017-11-03T16:01:02.142Z,1.50
2017-11-03T16:03:32.996Z,1.70
2017-11-03T16:06:03.844Z,2.20
2017-11-03T16:08:34.716Z,1.63
2017-11-03T16:11:05.560Z,2.00
2017-11-03T16:13:36.415Z,1.30
2017-11-03T16:16:07.268Z,2.27
2017-11-03T16:18:38.148Z,2.80
2017-11-03T16:21:09.009Z,3.00
2017-11-03T16:23:39.857Z,2.80
2017-11-03T16:26:10.725Z,2.40
2017-11-03T16:28:41.921Z,2.50
2017-11-03T16:31:12.790Z,3.05
2017-11-03T16:33:43.638Z,2.10
2017-11-03T16:36:14.532Z,3.20
2017-11-03T16:38:45.374Z,3.50
2017-11-03T16:41:16.251Z,3.03
2017-11-03T16:43:47.111Z,4.47
2017-11-03T16:46:17.963Z,5.83
2017-11-03T16:48:48.832Z,8.50
2017-11-03T16:51:19.691Z,6.53
2017-11-03T16:53:50.543Z,11.80
2017-11-03T16:56:21.432Z,10.67
2017-11-03T16:58:52.284Z,11.90
2017-11-03T17:01:23.172Z,11.40
2017-11-03T17:03:54.028Z,9.30
2017-11-03T17:06:24.962Z,9.90
2017-11-03T17:08:56.873Z,9.27
2017-11-03T17:11:27.717Z,8.70
2017-11-03T17:13:58.588Z,7.70
2017-11-03T17:16:29.465Z,7.23
2017-11-03T17:19:00.333Z,6.90
2017-11-03T17:21:31.184Z,4.73
2017-11-03T17:24:02.042Z,4.60
2017-11-03T17:26:32.898Z,3.57
2017-11-03T17:29:03.769Z,3.70
2017-11-03T17:31:34.608Z,3.27
2017-11-03T17:34:05.493Z,3.00
2017-11-03T17:36:36.332Z,2.30
2017-11-03T17:39:07.198Z,2.13
2017-11-03T17:41:38.069Z,2.33
2017-11-03T17:44:08.912Z,2.97
2017-11-03T17:46:39.776Z,3.07
2017-11-03T17:49:10.652Z,2.90
2017-11-03T17:51:41.510Z,3.60
2017-11-03T17:54:12.341Z,3.93
2017-11-03T17:56:43.204Z,3.97
2017-11-03T17:59:14.052Z,3.40
2017-11-03T18:01:44.938Z,3.40
2017-11-03T18:04:15.780Z,3.43
2017-11-03T18:06:46.681Z,3.43
2017-11-03T18:09:17.523Z,3.33
2017-11-03T18:11:48.412Z,3.03
2017-11-03T18:14:19.273Z,3.50
2017-11-03T18:16:50.119Z,3.30
2017-11-03T18:19:20.989Z,3.70
2017-11-03T18:21:51.847Z,3.17
2017-11-03T18:24:22.709Z,3.50
2017-11-03T18:26:53.565Z,4.63
2017-11-03T18:29:24.436Z,3.67
2017-11-03T18:31:55.280Z,3.20
2017-11-03T18:34:26.187Z,3.30
2017-11-03T18:36:57.014Z,2.80
2017-11-03T18:39:27.891Z,3.67
2017-11-03T18:41:58.752Z,3.87
2017-11-03T18:44:29.607Z,3.70
2017-11-03T18:47:01.043Z,3.70
2017-11-03T18:49:31.884Z,3.20
2017-11-03T18:52:02.703Z,3.70
2017-11-03T18:54:33.527Z,3.87
2017-11-03T18:57:04.356Z,3.53
2017-11-03T18:59:35.199Z,3.57
2017-11-03T19:02:06.029Z,3.57
2017-11-03T19:04:36.870Z,3.70
2017-11-03T19:07:07.735Z,3.60
2017-11-03T19:09:38.625Z,3.87
2017-11-03T19:12:09.483Z,4.00
2017-11-03T19:14:40.361Z,3.13
2017-11-03T19:17:11.244Z,2.30
2017-11-03T19:19:42.076Z,2.43
2017-11-03T19:22:12.913Z,1.30
2017-11-03T19:24:43.750Z,2.40
2017-11-03T19:27:14.600Z,2.83
2017-11-03T19:29:45.444Z,2.47
2017-11-03T19:32:16.314Z,3.10
2017-11-03T19:34:47.197Z,2.50
2017-11-03T19:37:18.077Z,2.50
2017-11-03T19:39:48.949Z,2.67
2017-11-03T19:42:19.814Z,2.60
2017-11-03T19:44:50.695Z,2.90
2017-11-03T19:47:21.557Z,2.13
2017-11-03T19:49:52.418Z,3.10
2017-11-03T19:52:23.328Z,4.73
2017-11-03T19:54:54.199Z,4.37
2017-11-03T19:57:25.075Z,11.93
2017-11-03T19:59:55.941Z,15.57
2017-11-03T20:02:26.822Z,15.47
2017-11-03T20:04:57.668Z,18.87
2017-11-03T20:07:28.543Z,21.27
2017-11-03T20:09:59.418Z,28.60
2017-11-03T20:12:30.373Z,28.30
2017-11-03T20:15:01.221Z,28.50
2017-11-03T20:17:32.107Z,26.23
2017-11-03T20:20:02.964Z,23.63
2017-11-03T20:22:33.841Z,22.90
2017-11-03T20:25:04.715Z,20.67
2017-11-03T20:27:35.604Z,21.20
2017-11-03T20:30:06.481Z,18.70
2017-11-03T20:32:37.343Z,16.70
2017-11-03T20:35:08.206Z,13.63
2017-11-03T20:37:39.061Z,16.03
2017-11-03T20:40:09.958Z,18.23
2017-11-03T20:42:40.921Z,17.27
2017-11-03T20:45:11.839Z,15.33
2017-11-03T20:47:42.718Z,14.37
2017-11-03T20:50:13.576Z,13.60
2017-11-03T20:52:44.454Z,13.37
2017-11-03T20:55:15.430Z,13.10
2017-11-03T20:57:46.364Z,12.87
2017-11-03T21:00:17.224Z,13.40
2017-11-03T21:02:48.160Z,11.93
2017-11-03T21:05:19.014Z,10.53
2017-11-03T21:07:49.907Z,11.77
2017-11-03T21:10:20.764Z,10.10
2017-11-03T21:12:51.664Z,10.30
2017-11-03T21:15:22.505Z,8.90
2017-11-03T21:17:53.377Z,9.30
2017-11-03T21:20:24.237Z,7.43
2017-11-03T21:22:55.107Z,7.70
2017-11-03T21:25:26.006Z,6.43
2017-11-03T21:27:56.850Z,7.60
2017-11-03T21:30:27.760Z,7.33
2017-11-03T21:32:58.605Z,7.03
2017-11-03T21:35:29.503Z,5.77
2017-11-03T21:38:00.352Z,6.40
2017-11-03T21:40:31.235Z,6.10
2017-11-03T21:43:02.132Z,5.40
2017-11-03T21:45:33.025Z,6.30
2017-11-03T21:48:03.879Z,6.20
2017-11-03T21:50:34.782Z,5.67
2017-11-03T21:53:05.621Z,5.90
2017-11-03T21:55:36.503Z,6.53
2017-11-03T21:58:07.377Z,6.00
2017-11-03T22:00:38.227Z,6.10
2017-11-03T22:03:09.108Z,5.97
2017-11-03T22:05:39.957Z,7.27
2017-11-03T22:08:10.826Z,7.27
2017-11-03T22:10:41.681Z,6.43
2017-11-03T22:13:12.574Z,7.40
2017-11-03T22:15:43.412Z,7.03
2017-11-03T22:18:14.268Z,6.60
2017-11-03T22:20:45.131Z,7.20
2017-11-03T22:23:16.000Z,5.87
2017-11-03T22:25:46.887Z,6.37
2017-11-03T22:28:17.828Z,6.93
2017-11-03T22:30:48.682Z,6.17
2017-11-03T22:33:19.563Z,6.07
2017-11-03T22:35:50.407Z,6.00
2017-11-03T22:38:21.273Z,5.93
2017-11-03T22:40:52.129Z,6.67
2017-11-03T22:43:23.056Z,6.20
2017-11-03T22:45:53.939Z,6.13
2017-11-03T22:48:24.834Z,6.97
2017-11-03T22:50:55.701Z,7.60
2017-11-03T22:53:26.552Z,11.33
2017-11-03T22:55:57.787Z,14.10
2017-11-03T22:58:28.645Z,15.93
2017-11-03T23:00:59.524Z,16.30
2017-11-03T23:03:30.364Z,16.83
2017-11-03T23:06:01.233Z,15.97
2017-11-03T23:08:32.123Z,13.80
2017-11-03T23:11:02.977Z,16.20
2017-11-03T23:13:33.860Z,14.87
2017-11-03T23:16:04.728Z,14.90
2017-11-03T23:18:35.605Z,14.53
2017-11-03T23:21:06.445Z,14.30
2017-11-03T23:23:37.326Z,14.73
2017-11-03T23:26:08.164Z,14.20
2017-11-03T23:28:39.022Z,14.50
2017-11-03T23:31:09.869Z,14.13
2017-11-03T23:33:40.775Z,13.00
2017-11-03T23:36:11.645Z,13.43
2017-11-03T23:38:42.496Z,11.83
2017-11-03T23:41:13.366Z,13.83
2017-11-03T23:43:44.223Z,12.93
2017-11-03T23:46:15.076Z,14.10
2017-11-03T23:48:45.951Z,13.73
2017-11-03T23:51:16.839Z,14.20
2017-11-03T23:53:47.688Z,13.63
2017-11-03T23:56:18.557Z,13.60
2017-11-03T23:58:49.416Z,13.60
